Time;durP1;ratioP1;P1;durP2;ratioP2;P2;SDS_P1;SDS_P2;PMS_P1;PMS_P2;Temp;Humidity;BMP_temperature;BMP_pressure;BME280_temperature;BME280_humidity;BME280_pressure;Samples;Min_cycle;Max_cycle;Signal;HPM_P1;HPM_P2
2023/09/11 00:00:32;;;;;;;11.93;8.93;;;17.10;99.90;;;;;;5022360;28;20076;-81
2023/09/11 00:02:57;;;;;;;12.93;9.27;;;17.00;99.90;;;;;;5015953;28;20026;-80
2023/09/11 00:05:23;;;;;;;11.20;9.68;;;17.00;99.90;;;;;;5019820;28;20111;-80
2023/09/11 00:07:49;;;;;;;10.80;9.65;;;17.00;99.90;;;;;;5024868;28;20021;-80
2023/09/11 00:10:15;;;;;;;11.18;9.95;;;17.00;99.90;;;;;;5020683;28;20389;-80
2023/09/11 00:12:41;;;;;;;13.40;11.18;;;17.00;99.90;;;;;;5015037;28;20106;-82
2023/09/11 00:15:07;;;;;;;11.50;10.18;;;16.90;99.90;;;;;;5025927;28;20042;-81
2023/09/11 00:17:33;;;;;;;10.90;9.80;;;16.90;99.90;;;;;;5013678;28;20053;-81
2023/09/11 00:19:59;;;;;;;10.30;9.20;;;17.00;99.90;;;;;;5018497;28;20031;-81
2023/09/11 00:22:25;;;;;;;12.95;10.00;;;17.00;99.90;;;;;;5018064;28;20477;-81
2023/09/11 00:24:50;;;;;;;14.65;10.60;;;17.00;99.90;;;;;;5016158;28;20029;-81
2023/09/11 00:27:19;;;;;;;14.07;10.57;;;16.90;99.90;;;;;;5017595;28;20041;-80
2023/09/11 00:29:45;;;;;;;14.43;10.68;;;16.90;99.90;;;;;;5017739;28;20451;-81
2023/09/11 00:32:10;;;;;;;13.82;11.10;;;16.90;99.90;;;;;;5016796;28;20030;-81
2023/09/11 00:34:36;;;;;;;13.63;12.15;;;16.90;99.90;;;;;;5001502;28;20038;-80
2023/09/11 00:37:02;;;;;;;11.75;10.55;;;16.90;99.90;;;;;;5029585;28;20037;-81
2023/09/11 00:39:27;;;;;;;17.45;10.77;;;16.90;99.90;;;;;;5020796;28;20030;-81
2023/09/11 00:41:53;;;;;;;11.07;9.88;;;16.90;99.90;;;;;;5022655;28;20084;-80
2023/09/11 00:44:19;;;;;;;12.68;10.15;;;16.90;99.90;;;;;;5018957;28;20045;-81
2023/09/11 00:46:45;;;;;;;10.82;9.65;;;16.80;99.90;;;;;;5015120;28;20099;-80
2023/09/11 00:49:11;;;;;;;11.90;10.23;;;16.80;99.90;;;;;;5014988;28;20178;-80
2023/09/11 00:51:40;;;;;;;12.63;9.85;;;16.80;99.90;;;;;;5018441;28;20037;-80
2023/09/11 00:54:06;;;;;;;13.80;10.60;;;16.80;99.90;;;;;;5011158;28;20037;-81
2023/09/11 00:56:32;;;;;;;13.35;10.77;;;16.80;99.90;;;;;;5016224;28;20030;-81
2023/09/11 00:59:02;;;;;;;13.38;10.68;;;16.80;99.90;;;;;;5009279;28;20305;-80
2023/09/11 01:01:31;;;;;;;13.82;11.10;;;16.70;99.90;;;;;;5015690;28;20025;-80
2023/09/11 01:04:16;;;;;;;12.73;10.65;;;16.80;99.90;;;;;;5013937;28;20608;-80
2023/09/11 01:06:42;;;;;;;13.23;10.50;;;16.70;99.90;;;;;;5024308;28;20038;-81
2023/09/11 01:09:08;;;;;;;10.95;9.68;;;16.70;99.90;;;;;;5024345;28;20092;-79
2023/09/11 01:11:34;;;;;;;12.68;9.82;;;16.60;99.90;;;;;;5006384;28;20466;-81
2023/09/11 01:14:01;;;;;;;11.88;10.30;;;16.60;99.90;;;;;;5037939;28;20119;-81
2023/09/11 01:16:51;;;;;;;10.63;9.52;;;16.50;99.90;;;;;;5007879;28;20707;-81
2023/09/11 01:19:54;;;;;;;14.48;9.70;;;16.50;99.90;;;;;;5031937;28;20327;-81
2023/09/11 01:22:56;;;;;;;11.98;9.00;;;16.40;99.90;;;;;;5019852;28;20374;-81
2023/09/11 01:26:11;;;;;;;12.60;10.05;;;16.40;99.90;;;;;;5015749;28;20021;-81
2023/09/11 01:29:15;;;;;;;11.63;9.35;;;16.40;99.90;;;;;;4996966;28;20038;-79
2023/09/11 01:31:43;;;;;;;12.05;9.85;;;16.40;99.90;;;;;;5027704;28;20034;-80
2023/09/11 01:34:09;;;;;;;11.10;8.80;;;16.30;99.90;;;;;;5015129;28;20116;-80
2023/09/11 01:36:34;;;;;;;11.52;9.95;;;16.20;99.90;;;;;;5016680;28;20053;-81
2023/09/11 01:39:01;;;;;;;12.50;9.35;;;16.20;99.90;;;;;;5015868;28;20037;-80
2023/09/11 01:41:37;;;;;;;12.00;9.50;;;16.20;99.90;;;;;;5037527;28;20497;-80
2023/09/11 01:44:09;;;;;;;10.02;8.95;;;16.10;99.90;;;;;;5015957;28;20037;-81
2023/09/11 01:46:35;;;;;;;10.38;9.27;;;16.10;99.90;;;;;;5017220;28;20025;-80
2023/09/11 01:49:02;;;;;;;11.52;9.75;;;16.10;99.90;;;;;;5041030;28;20063;-80
2023/09/11 01:51:30;;;;;;;13.32;10.10;;;16.10;99.90;;;;;;5025503;28;20025;-79
2023/09/11 01:53:57;;;;;;;11.70;9.63;;;16.10;99.90;;;;;;5010675;28;20404;-80
2023/09/11 01:56:23;;;;;;;12.90;9.75;;;16.10;99.90;;;;;;5022001;28;20540;-80
2023/09/11 01:58:49;;;;;;;10.18;8.57;;;16.10;99.90;;;;;;5037024;28;20031;-80
2023/09/11 02:01:15;;;;;;;11.18;8.75;;;16.10;99.90;;;;;;5020569;28;20056;-80
2023/09/11 02:03:40;;;;;;;10.93;8.65;;;16.10;99.90;;;;;;5016076;28;20045;-80
2023/09/11 02:06:06;;;;;;;11.30;9.35;;;16.10;99.90;;;;;;5017813;28;20037;-81
2023/09/11 02:08:35;;;;;;;13.63;10.10;;;16.00;99.90;;;;;;5016552;28;20041;-79
2023/09/11 02:11:01;;;;;;;11.20;8.88;;;16.00;99.90;;;;;;5031774;28;20029;-80
2023/09/11 02:13:27;;;;;;;12.57;9.95;;;16.00;99.90;;;;;;5019369;28;20526;-79
2023/09/11 02:15:53;;;;;;;11.73;9.95;;;16.00;99.90;;;;;;5022473;28;20075;-80
2023/09/11 02:18:19;;;;;;;12.52;10.15;;;15.90;99.90;;;;;;5038089;28;20037;-79
2023/09/11 02:20:47;;;;;;;14.45;10.68;;;15.90;99.90;;;;;;5021304;28;20071;-79
2023/09/11 02:23:15;;;;;;;12.15;10.05;;;15.90;99.90;;;;;;5025636;28;20034;-80
2023/09/11 02:25:41;;;;;;;12.98;10.30;;;15.90;99.90;;;;;;5016538;28;20022;-81
2023/09/11 02:28:08;;;;;;;11.95;10.15;;;15.80;99.90;;;;;;5013576;28;20072;-79
2023/09/11 02:30:33;;;;;;;13.02;10.48;;;15.80;99.90;;;;;;5010169;28;20094;-80
2023/09/11 02:32:59;;;;;;;13.68;9.63;;;15.80;99.90;;;;;;5012120;28;20065;-80
2023/09/11 02:35:25;;;;;;;14.77;11.00;;;15.70;99.90;;;;;;5023257;28;20076;-81
2023/09/11 02:37:51;;;;;;;14.07;9.57;;;15.70;99.90;;;;;;5024802;28;20198;-79
2023/09/11 02:40:17;;;;;;;13.73;10.40;;;15.70;99.90;;;;;;5028910;28;20035;-79
2023/09/11 02:42:42;;;;;;;13.27;10.80;;;15.60;99.90;;;;;;5017659;28;20033;-79
2023/09/11 02:45:08;;;;;;;12.02;9.88;;;15.60;99.90;;;;;;4999967;28;20042;-80
2023/09/11 02:47:34;;;;;;;14.63;12.00;;;15.70;99.90;;;;;;5015553;28;20053;-79
2023/09/11 02:50:00;;;;;;;11.82;10.45;;;15.60;99.90;;;;;;5033875;28;20041;-79
2023/09/11 02:52:25;;;;;;;13.38;11.15;;;15.60;99.90;;;;;;4996003;28;20501;-79
2023/09/11 02:54:51;;;;;;;13.70;11.68;;;15.50;99.90;;;;;;5017071;28;21134;-81
2023/09/11 02:57:17;;;;;;;12.35;10.80;;;15.50;99.90;;;;;;5005134;28;20042;-80
2023/09/11 02:59:43;;;;;;;14.75;10.60;;;15.50;99.90;;;;;;5014761;28;20036;-80
2023/09/11 03:02:09;;;;;;;14.20;12.43;;;15.50;99.90;;;;;;5021450;28;20026;-79
2023/09/11 03:04:35;;;;;;;11.60;10.10;;;15.50;99.90;;;;;;5019050;28;20030;-79
2023/09/11 03:07:01;;;;;;;15.40;11.70;;;15.40;99.90;;;;;;5038284;28;20059;-80
2023/09/11 03:09:27;;;;;;;14.80;11.55;;;15.50;99.90;;;;;;5028955;28;20128;-80
2023/09/11 03:11:54;;;;;;;13.15;11.27;;;15.50;99.90;;;;;;5038492;28;20026;-81
2023/09/11 03:14:20;;;;;;;11.93;10.55;;;15.50;99.90;;;;;;5015482;28;20037;-81
2023/09/11 03:16:46;;;;;;;15.43;11.98;;;15.40;99.90;;;;;;5014236;28;20042;-80
2023/09/11 03:19:12;;;;;;;13.73;11.10;;;15.40;99.90;;;;;;5019597;28;20049;-80
2023/09/11 03:21:38;;;;;;;13.48;11.23;;;15.40;99.90;;;;;;5022563;28;20080;-81
2023/09/11 03:24:22;;;;;;;14.95;11.05;;;15.40;99.90;;;;;;5021853;28;20069;-82
2023/09/11 03:26:48;;;;;;;14.25;10.95;;;15.40;99.90;;;;;;5039719;28;20027;-81
2023/09/11 03:29:14;;;;;;;15.35;11.77;;;15.40;99.90;;;;;;5029745;28;20129;-82
2023/09/11 03:31:39;;;;;;;15.82;11.98;;;15.40;99.90;;;;;;5011763;28;20086;-80
2023/09/11 03:34:05;;;;;;;13.20;11.50;;;15.40;99.90;;;;;;5020310;28;20038;-81
2023/09/11 03:36:31;;;;;;;14.90;12.85;;;15.40;99.90;;;;;;5006195;28;20027;-82
2023/09/11 03:38:57;;;;;;;15.52;11.98;;;15.40;99.90;;;;;;5015157;28;20575;-83
2023/09/11 03:41:23;;;;;;;14.52;12.63;;;15.30;99.90;;;;;;5014782;28;20041;-80
2023/09/11 03:43:49;;;;;;;14.23;11.68;;;15.30;99.90;;;;;;5022056;28;20033;-82
2023/09/11 03:46:16;;;;;;;15.23;12.13;;;15.30;99.90;;;;;;5017822;28;20042;-81
2023/09/11 03:48:45;;;;;;;15.40;12.30;;;15.30;99.90;;;;;;5017978;28;20022;-82
2023/09/11 03:51:12;;;;;;;17.50;12.57;;;15.20;99.90;;;;;;5023275;28;20026;-81
2023/09/11 03:53:42;;;;;;;14.52;12.70;;;15.30;99.90;;;;;;5020728;28;20410;-80
2023/09/11 03:56:10;;;;;;;16.52;12.75;;;15.20;99.90;;;;;;5032292;28;20037;-82
2023/09/11 03:58:36;;;;;;;13.88;11.95;;;15.20;99.90;;;;;;5011906;28;20026;-83
2023/09/11 04:01:02;;;;;;;15.70;12.13;;;15.20;99.90;;;;;;5010937;28;20031;-82
2023/09/11 04:03:28;;;;;;;13.95;11.80;;;15.20;99.90;;;;;;5029071;28;20516;-82
2023/09/11 04:05:54;;;;;;;14.82;12.15;;;15.20;99.90;;;;;;5024345;28;20036;-82
2023/09/11 04:08:20;;;;;;;14.15;11.23;;;15.30;99.90;;;;;;5003170;28;20037;-80
2023/09/11 04:10:46;;;;;;;16.05;12.10;;;15.20;99.90;;;;;;5015800;28;20026;-82
2023/09/11 04:13:12;;;;;;;13.68;11.32;;;15.20;99.90;;;;;;5023295;28;20121;-80
2023/09/11 04:15:38;;;;;;;13.30;11.20;;;15.20;99.90;;;;;;5020567;28;20112;-82
2023/09/11 04:18:04;;;;;;;16.58;11.20;;;15.20;99.90;;;;;;5020584;28;20235;-81
2023/09/11 04:20:33;;;;;;;14.75;12.20;;;15.10;99.90;;;;;;5024342;28;20040;-82
2023/09/11 04:23:17;;;;;;;13.63;11.18;;;15.10;99.90;;;;;;5028022;28;20099;-81
2023/09/11 04:25:44;;;;;;;15.18;11.75;;;15.10;99.90;;;;;;5018261;28;20057;-80
2023/09/11 04:28:10;;;;;;;14.75;12.20;;;15.10;99.90;;;;;;5033380;28;20053;-80
2023/09/11 04:30:36;;;;;;;15.30;12.07;;;15.10;99.90;;;;;;5006615;28;20704;-81
2023/09/11 04:33:03;;;;;;;16.25;13.05;;;15.10;99.90;;;;;;5021451;28;20053;-81
2023/09/11 04:35:29;;;;;;;15.00;12.45;;;15.10;99.90;;;;;;5036193;28;20585;-81
2023/09/11 04:37:55;;;;;;;13.00;11.15;;;15.10;99.90;;;;;;5018068;28;20036;-81
2023/09/11 04:40:21;;;;;;;15.00;11.18;;;15.10;99.90;;;;;;5010959;28;20121;-79
2023/09/11 04:42:48;;;;;;;15.38;11.50;;;15.10;99.90;;;;;;5021357;28;20040;-78
2023/09/11 04:45:13;;;;;;;16.60;11.95;;;15.00;99.90;;;;;;5033484;28;20037;-80
2023/09/11 04:47:39;;;;;;;13.10;11.60;;;15.10;99.90;;;;;;5018759;28;20033;-79
2023/09/11 04:50:05;;;;;;;13.15;11.00;;;15.10;99.90;;;;;;5015333;28;20041;-78
2023/09/11 04:52:31;;;;;;;14.90;10.80;;;15.00;99.90;;;;;;5026200;28;20124;-79
2023/09/11 04:54:57;;;;;;;14.15;12.00;;;15.00;99.90;;;;;;5021846;28;20160;-79
2023/09/11 04:57:23;;;;;;;15.25;12.48;;;15.00;99.90;;;;;;5005150;28;20506;-80
2023/09/11 04:59:49;;;;;;;12.35;11.05;;;14.90;99.90;;;;;;5015470;28;20117;-78
2023/09/11 05:02:15;;;;;;;14.35;11.25;;;15.00;99.90;;;;;;5012125;28;20030;-79
2023/09/11 05:04:42;;;;;;;13.40;10.75;;;15.00;99.90;;;;;;5017547;28;20032;-80
2023/09/11 05:07:08;;;;;;;13.02;10.95;;;15.00;99.90;;;;;;5014880;28;20029;-80
2023/09/11 05:09:33;;;;;;;11.57;10.02;;;15.00;99.90;;;;;;5003238;28;20107;-80
2023/09/11 05:12:00;;;;;;;12.90;11.02;;;15.00;99.90;;;;;;5012906;28;20133;-79
2023/09/11 05:14:26;;;;;;;13.15;11.32;;;15.00;99.90;;;;;;5020351;28;20476;-79
2023/09/11 05:16:52;;;;;;;14.80;11.40;;;15.00;99.90;;;;;;5028961;28;20053;-79
2023/09/11 05:19:17;;;;;;;16.73;11.30;;;15.00;99.90;;;;;;5020114;28;20116;-80
2023/09/11 05:21:43;;;;;;;12.70;11.02;;;15.00;99.90;;;;;;5022633;28;20035;-79
2023/09/11 05:24:09;;;;;;;13.80;11.23;;;15.00;99.90;;;;;;5011307;28;20041;-80
2023/09/11 05:26:35;;;;;;;15.15;11.65;;;15.10;99.90;;;;;;5014686;28;20026;-80
2023/09/11 05:29:19;;;;;;;15.48;12.23;;;15.10;99.90;;;;;;5012918;28;20536;-78
2023/09/11 05:31:45;;;;;;;16.58;12.52;;;15.10;99.90;;;;;;5008793;28;20045;-80
2023/09/11 05:34:12;;;;;;;13.60;11.52;;;15.10;99.90;;;;;;5008704;28;20548;-82
2023/09/11 05:36:38;;;;;;;14.70;13.13;;;15.10;99.90;;;;;;5013515;28;20030;-80
2023/09/11 05:39:05;;;;;;;15.73;12.15;;;15.10;99.90;;;;;;5021886;28;20045;-81
2023/09/11 05:41:31;;;;;;;13.43;11.07;;;15.20;99.90;;;;;;5016356;28;20103;-79
2023/09/11 05:43:57;;;;;;;13.23;11.23;;;15.30;99.90;;;;;;5016988;28;20076;-80
2023/09/11 05:46:23;;;;;;;16.98;13.23;;;15.40;99.90;;;;;;5019831;28;20616;-81
2023/09/11 05:48:49;;;;;;;17.60;13.90;;;15.50;99.90;;;;;;5013845;28;20037;-82
2023/09/11 05:51:15;;;;;;;21.00;16.33;;;15.60;99.90;;;;;;5020952;28;20556;-81
2023/09/11 05:53:41;;;;;;;16.27;13.10;;;15.70;99.90;;;;;;5008595;28;20053;-81
2023/09/11 05:56:07;;;;;;;15.05;12.13;;;15.90;99.90;;;;;;5011237;28;20112;-80
2023/09/11 05:58:32;;;;;;;13.90;11.75;;;16.10;99.90;;;;;;5018326;28;20068;-80
2023/09/11 06:00:58;;;;;;;11.88;9.80;;;16.40;99.90;;;;;;5002442;28;20033;-81
2023/09/11 06:03:24;;;;;;;14.48;12.20;;;16.60;99.90;;;;;;5013523;28;20041;-81
2023/09/11 06:06:08;;;;;;;12.77;10.70;;;16.70;99.90;;;;;;5004660;28;20112;-81
2023/09/11 06:08:34;;;;;;;12.77;10.48;;;17.00;99.90;;;;;;5012934;28;20485;-79
2023/09/11 06:11:00;;;;;;;12.75;10.00;;;17.20;99.90;;;;;;5019403;28;20041;-80
2023/09/11 06:13:26;;;;;;;15.02;11.05;;;17.40;99.90;;;;;;5012690;28;20091;-81
2023/09/11 06:15:52;;;;;;;17.08;14.68;;;17.60;99.90;;;;;;5009009;28;20049;-80
2023/09/11 06:18:18;;;;;;;21.55;15.15;;;17.70;99.90;;;;;;5017560;28;20044;-80
2023/09/11 06:20:44;;;;;;;15.38;11.95;;;17.90;99.90;;;;;;5008046;28;20042;-80
2023/09/11 06:23:12;;;;;;;12.05;9.60;;;18.10;99.90;;;;;;5005794;28;20026;-81
2023/09/11 06:25:38;;;;;;;12.93;10.70;;;18.30;99.90;;;;;;5011659;28;20117;-81
2023/09/11 06:28:05;;;;;;;10.63;9.50;;;18.50;99.90;;;;;;5010759;28;20066;-80
2023/09/11 06:30:32;;;;;;;15.68;11.50;;;18.80;99.90;;;;;;5015526;28;20034;-80
2023/09/11 06:32:58;;;;;;;14.23;12.63;;;19.00;99.90;;;;;;5022267;28;20013;-81
2023/09/11 06:35:23;;;;;;;16.45;14.00;;;19.00;99.90;;;;;;5022780;28;20045;-82
2023/09/11 06:37:49;;;;;;;17.35;12.90;;;19.10;99.90;;;;;;5016347;28;20034;-81
2023/09/11 06:40:15;;;;;;;13.52;11.93;;;19.30;99.90;;;;;;5016494;28;20386;-81
2023/09/11 06:42:41;;;;;;;14.02;12.43;;;19.50;99.90;;;;;;5018538;28;20030;-81
2023/09/11 06:45:07;;;;;;;23.15;15.45;;;19.60;99.90;;;;;;5030683;28;20034;-83
2023/09/11 06:47:33;;;;;;;21.08;16.75;;;19.80;99.90;;;;;;5016919;28;20399;-82
2023/09/11 06:49:59;;;;;;;17.83;14.82;;;19.90;99.90;;;;;;5022655;28;20041;-81
2023/09/11 06:52:25;;;;;;;22.10;16.20;;;20.10;99.90;;;;;;5008643;28;20029;-81
2023/09/11 06:55:10;;;;;;;20.20;16.58;;;20.30;99.90;;;;;;5017004;28;20132;-81
2023/09/11 06:57:41;;;;;;;21.75;17.45;;;20.40;99.90;;;;;;5017719;28;20054;-82
2023/09/11 07:00:10;;;;;;;20.60;16.63;;;20.50;99.90;;;;;;5018893;28;20034;-81
2023/09/11 07:02:38;;;;;;;19.48;16.80;;;20.70;99.90;;;;;;5011928;28;20026;-83
2023/09/11 07:05:05;;;;;;;18.52;14.32;;;20.70;99.90;;;;;;5019689;28;20570;-82
2023/09/11 07:07:31;;;;;;;21.58;17.38;;;20.90;99.90;;;;;;5015038;28;20037;-82
2023/09/11 07:09:56;;;;;;;19.35;16.90;;;20.90;99.90;;;;;;5030230;28;20030;-82
2023/09/11 07:12:22;;;;;;;20.05;15.65;;;21.00;99.90;;;;;;5013127;28;20038;-82
2023/09/11 07:14:48;;;;;;;19.40;15.70;;;21.00;99.90;;;;;;5016403;28;20044;-82
2023/09/11 07:17:13;;;;;;;20.92;15.95;;;21.00;99.90;;;;;;5018990;28;20038;-82
2023/09/11 07:19:40;;;;;;;17.70;15.65;;;21.00;99.90;;;;;;5012221;28;20030;-81
2023/09/11 07:22:06;;;;;;;17.83;15.60;;;21.20;99.90;;;;;;5012498;28;20026;-83
2023/09/11 07:24:31;;;;;;;22.20;16.23;;;21.40;99.90;;;;;;5020322;28;20093;-82
2023/09/11 07:26:57;;;;;;;20.50;16.02;;;21.40;99.90;;;;;;5012356;28;20343;-81
2023/09/11 07:29:26;;;;;;;20.75;15.75;;;21.60;99.90;;;;;;5023097;28;20091;-82
2023/09/11 07:31:52;;;;;;;17.35;14.90;;;21.80;99.90;;;;;;5012347;28;20034;-81
2023/09/11 07:34:18;;;;;;;17.10;14.25;;;21.90;99.90;;;;;;5013095;28;20053;-81
2023/09/11 07:36:44;;;;;;;18.65;14.98;;;22.10;99.90;;;;;;5013027;28;20030;-81
2023/09/11 07:39:09;;;;;;;16.45;13.80;;;22.20;99.90;;;;;;5019197;28;20034;-80
2023/09/11 07:41:35;;;;;;;19.50;15.00;;;22.40;99.90;;;;;;5012064;28;20029;-81
2023/09/11 07:44:01;;;;;;;18.92;14.60;;;22.40;99.90;;;;;;5017861;28;20049;-81
2023/09/11 07:46:30;;;;;;;14.52;13.07;;;22.60;99.90;;;;;;5023366;28;20047;-81
2023/09/11 07:48:55;;;;;;;16.83;13.38;;;22.70;99.90;;;;;;5011303;28;20026;-80
2023/09/11 07:51:21;;;;;;;16.67;13.38;;;22.80;99.90;;;;;;5014703;28;20045;-81
2023/09/11 07:53:47;;;;;;;18.77;15.15;;;22.90;99.90;;;;;;5011813;28;20042;-80
2023/09/11 07:56:14;;;;;;;19.17;15.38;;;22.90;99.90;;;;;;5015655;28;20079;-81
2023/09/11 07:58:39;;;;;;;17.95;14.65;;;22.90;99.90;;;;;;5021159;28;20026;-81
2023/09/11 08:01:05;;;;;;;16.73;13.88;;;23.00;99.90;;;;;;5016298;28;20030;-79
2023/09/11 08:03:35;;;;;;;17.08;14.93;;;23.00;99.90;;;;;;5017687;28;20038;-82
2023/09/11 08:06:01;;;;;;;18.95;14.52;;;23.00;99.90;;;;;;5020166;28;20069;-80
2023/09/11 08:08:27;;;;;;;15.63;14.02;;;23.00;99.90;;;;;;5013464;28;20109;-81
2023/09/11 08:10:53;;;;;;;18.20;14.68;;;23.00;99.90;;;;;;5014209;28;20038;-80
2023/09/11 08:13:19;;;;;;;15.88;14.27;;;22.90;99.90;;;;;;5010037;28;20034;-81
2023/09/11 08:15:45;;;;;;;16.23;14.45;;;23.00;99.90;;;;;;5005606;28;20036;-80
2023/09/11 08:18:10;;;;;;;22.27;14.90;;;23.20;99.90;;;;;;5017831;28;20026;-80
2023/09/11 08:20:37;;;;;;;17.30;14.50;;;23.30;99.90;;;;;;5009621;28;20026;-80
2023/09/11 08:23:03;;;;;;;17.83;14.82;;;23.30;99.90;;;;;;5013315;28;20409;-80
2023/09/11 08:25:29;;;;;;;18.45;14.85;;;23.40;99.90;;;;;;5008090;28;20030;-80
2023/09/11 08:27:55;;;;;;;16.95;15.10;;;23.40;99.90;;;;;;5006885;28;20030;-80
2023/09/11 08:30:21;;;;;;;19.33;15.38;;;23.40;99.90;;;;;;5011438;28;20470;-80
2023/09/11 08:32:46;;;;;;;15.90;14.10;;;23.50;99.90;;;;;;5014484;28;20042;-80
2023/09/11 08:35:12;;;;;;;17.45;14.77;;;23.60;99.90;;;;;;5010524;28;20046;-81
2023/09/11 08:37:38;;;;;;;18.40;14.40;;;23.70;99.90;;;;;;5016802;28;20125;-80
2023/09/11 08:40:04;;;;;;;18.58;14.38;;;23.80;99.90;;;;;;5021792;28;20029;-80
2023/09/11 08:42:30;;;;;;;17.80;14.70;;;23.70;99.90;;;;;;5023429;28;20029;-81
2023/09/11 08:44:56;;;;;;;16.75;13.93;;;23.80;99.90;;;;;;5018075;28;20410;-80
2023/09/11 08:47:28;;;;;;;16.75;14.90;;;23.90;99.90;;;;;;5026166;28;20117;-80
2023/09/11 08:49:57;;;;;;;15.20;13.25;;;23.90;99.90;;;;;;5011452;28;20071;-81
2023/09/11 08:52:24;;;;;;;18.42;14.23;;;24.00;99.90;;;;;;5021383;28;20393;-80
2023/09/11 08:54:53;;;;;;;16.70;15.00;;;24.00;99.90;;;;;;5002254;28;20054;-80
2023/09/11 08:57:21;;;;;;;18.45;14.80;;;24.00;99.90;;;;;;5016784;28;20406;-80
2023/09/11 08:59:52;;;;;;;16.17;13.80;;;24.10;99.90;;;;;;5016034;28;20022;-79
2023/09/11 09:02:20;;;;;;;17.67;13.93;;;24.10;99.90;;;;;;5015386;28;20040;-79
2023/09/11 09:04:48;;;;;;;16.33;14.18;;;24.20;99.90;;;;;;4997877;28;20088;-80
2023/09/11 09:07:16;;;;;;;16.85;14.68;;;24.30;99.90;;;;;;5022485;28;20048;-79
2023/09/11 09:09:42;;;;;;;16.05;14.45;;;24.20;99.90;;;;;;5014515;28;20255;-78
2023/09/11 09:12:09;;;;;;;16.45;12.93;;;24.30;99.90;;;;;;5019805;28;20051;-79
2023/09/11 09:14:38;;;;;;;15.30;13.70;;;24.30;99.90;;;;;;5029309;28;20048;-78
2023/09/11 09:17:04;;;;;;;15.52;12.88;;;24.40;99.90;;;;;;5025845;28;20030;-79
2023/09/11 09:19:29;;;;;;;15.18;12.75;;;24.40;99.90;;;;;;5015007;28;20084;-79
2023/09/11 09:22:05;;;;;;;14.57;12.57;;;24.50;99.90;;;;;;5010916;28;20045;-79
2023/09/11 09:24:34;;;;;;;16.15;12.77;;;24.50;99.90;;;;;;5007067;28;20037;-78
2023/09/11 09:27:07;;;;;;;13.57;12.15;;;24.60;99.90;;;;;;5008793;28;20164;-79
2023/09/11 09:29:34;;;;;;;12.23;10.95;;;24.70;99.90;;;;;;5015421;28;20026;-79
2023/09/11 09:32:04;;;;;;;13.57;10.35;;;24.90;99.90;;;;;;5010424;28;20881;-80
2023/09/11 09:34:32;;;;;;;12.75;11.45;;;24.90;99.90;;;;;;5019032;28;20037;-81
2023/09/11 09:36:58;;;;;;;12.15;10.60;;;25.00;99.90;;;;;;4998005;28;20025;-80
2023/09/11 09:39:28;;;;;;;12.20;11.00;;;25.00;99.90;;;;;;4991944;28;20049;-80
2023/09/11 09:41:56;;;;;;;14.10;11.55;;;25.00;99.90;;;;;;5007716;28;20410;-81
2023/09/11 09:44:34;;;;;;;12.80;11.50;;;25.10;99.90;;;;;;5020915;28;20270;-79
2023/09/11 09:47:11;;;;;;;12.40;11.10;;;25.30;99.90;;;;;;5004128;28;20069;-80
2023/09/11 09:49:43;;;;;;;13.10;10.93;;;25.30;99.90;;;;;;5014645;28;20065;-80
2023/09/11 09:52:09;;;;;;;12.90;9.80;;;25.30;99.90;;;;;;4996512;28;20038;-80
2023/09/11 09:54:52;;;;;;;11.23;9.88;;;25.30;99.90;;;;;;5007893;28;20036;-80
2023/09/11 09:57:21;;;;;;;13.50;11.38;;;25.40;99.90;;;;;;5010377;28;20108;-79
2023/09/11 09:59:53;;;;;;;16.48;12.55;;;25.50;99.90;;;;;;5008069;28;20027;-80
2023/09/11 10:02:33;;;;;;;13.15;11.80;;;25.30;99.90;;;;;;5011292;28;20108;-79
2023/09/11 10:05:07;;;;;;;14.77;12.55;;;25.30;99.90;;;;;;5011306;28;20026;-80
2023/09/11 10:07:42;;;;;;;15.20;12.30;;;25.30;99.90;;;;;;5004379;28;20490;-80
2023/09/11 10:10:22;;;;;;;13.73;12.15;;;25.30;99.90;;;;;;5010196;28;20021;-79
2023/09/11 10:13:08;;;;;;;12.85;11.55;;;25.30;99.90;;;;;;5010749;28;20045;-77
2023/09/11 10:15:36;;;;;;;12.75;11.45;;;25.40;99.90;;;;;;5013416;28;20038;-80
2023/09/11 10:18:02;;;;;;;11.55;10.38;;;25.40;99.90;;;;;;5004928;28;20045;-78
2023/09/11 10:20:29;;;;;;;13.60;10.88;;;25.40;99.90;;;;;;5012630;28;20026;-80
2023/09/11 10:22:57;;;;;;;12.98;11.55;;;25.50;99.90;;;;;;4992900;28;20107;-80
2023/09/11 10:25:25;;;;;;;11.70;10.50;;;25.50;99.90;;;;;;5005375;28;20052;-79
2023/09/11 10:28:00;;;;;;;13.85;11.98;;;25.50;99.90;;;;;;5009630;28;20309;-79
2023/09/11 10:30:29;;;;;;;;;;;25.60;99.90;;;;;;5005892;28;20062;-79
2023/09/11 10:32:59;;;;;;;15.88;10.73;;;25.60;99.90;;;;;;5005767;28;19917;-80
2023/09/11 10:35:29;;;;;;;13.45;10.73;;;25.70;99.90;;;;;;5012622;28;20257;-80
2023/09/11 10:37:57;;;;;;;10.95;9.85;;;25.70;99.90;;;;;;5017499;28;20263;-80
2023/09/11 10:40:31;;;;;;;11.85;9.50;;;25.70;99.90;;;;;;5008090;28;20093;-80
2023/09/11 10:42:58;;;;;;;10.65;9.65;;;25.70;99.90;;;;;;5011398;28;20815;-81
2023/09/11 10:45:28;;;;;;;11.23;10.10;;;25.80;99.90;;;;;;5012510;28;20131;-80
2023/09/11 10:47:54;;;;;;;10.50;9.45;;;25.80;99.90;;;;;;5017247;28;20030;-79
2023/09/11 10:50:43;;;;;;;10.48;9.48;;;25.90;99.90;;;;;;5019609;28;20026;-80
2023/09/11 10:53:09;;;;;;;10.27;9.23;;;26.00;99.90;;;;;;5004365;28;20530;-80
2023/09/11 10:55:35;;;;;;;11.63;9.18;;;26.00;99.90;;;;;;5009552;28;20113;-80
2023/09/11 10:58:05;;;;;;;10.20;8.60;;;26.10;99.90;;;;;;5008889;28;20030;-80
2023/09/11 11:00:37;;;;;;;10.82;9.10;;;26.20;99.90;;;;;;5017483;28;20509;-80
2023/09/11 11:03:04;;;;;;;12.35;9.32;;;26.40;99.90;;;;;;5012443;28;20127;-79
2023/09/11 11:05:32;;;;;;;9.52;8.52;;;26.50;99.90;;;;;;5011672;28;20022;-80
2023/09/11 11:07:58;;;;;;;9.52;8.13;;;26.50;99.90;;;;;;5017677;28;20026;-80
2023/09/11 11:10:25;;;;;;;9.02;8.00;;;26.50;99.90;;;;;;5007731;28;20034;-81
2023/09/11 11:13:06;;;;;;;9.38;8.10;;;26.60;99.90;;;;;;5006693;28;20617;-80
2023/09/11 11:15:31;;;;;;;12.07;8.02;;;26.60;99.90;;;;;;5001805;28;20657;-80
2023/09/11 11:18:06;;;;;;;8.95;7.82;;;26.60;99.90;;;;;;5003433;28;20109;-81
2023/09/11 11:20:36;;;;;;;10.88;8.55;;;26.60;99.90;;;;;;5002152;28;20060;-82
2023/09/11 11:23:09;;;;;;;8.40;7.60;;;26.70;99.90;;;;;;5012109;28;20554;-80
2023/09/11 11:25:36;;;;;;;9.13;8.07;;;26.80;99.90;;;;;;5017546;28;20129;-80
2023/09/11 11:28:16;;;;;;;9.80;8.57;;;26.80;99.90;;;;;;5011621;28;20037;-81
2023/09/11 11:30:44;;;;;;;11.02;8.95;;;26.90;99.90;;;;;;5006658;28;20030;-83
2023/09/11 11:36:02;;;;;;;8.75;7.80;;;27.00;99.90;;;;;;5011827;28;20124;-82
2023/09/11 11:38:28;;;;;;;8.73;7.88;;;27.10;99.90;;;;;;5014273;28;20037;-80
2023/09/11 11:40:54;;;;;;;8.57;7.65;;;27.30;99.90;;;;;;5011722;28;20088;-79
2023/09/11 11:43:22;;;;;;;10.90;8.05;;;27.40;99.90;;;;;;5009569;28;20041;-80
2023/09/11 11:45:48;;;;;;;10.05;7.68;;;27.40;99.20;;;;;;5011663;28;20135;-79
2023/09/11 11:48:15;;;;;;;9.73;7.03;;;27.50;99.90;;;;;;4996605;28;20045;-79
2023/09/11 11:50:49;;;;;;;8.35;7.55;;;27.60;99.90;;;;;;5011633;28;20030;-79
2023/09/11 11:53:17;;;;;;;7.82;6.97;;;27.80;98.80;;;;;;5010261;28;20073;-81
2023/09/11 11:55:44;;;;;;;8.35;7.43;;;27.90;99.90;;;;;;5021854;28;20076;-81
2023/09/11 11:58:14;;;;;;;7.93;7.13;;;28.00;99.90;;;;;;5011073;28;20022;-80
2023/09/11 12:01:01;;;;;;;8.52;7.68;;;28.10;99.90;;;;;;5012916;28;20053;-81
2023/09/11 12:03:29;;;;;;;8.60;7.22;;;28.30;99.90;;;;;;5018537;28;20109;-81
2023/09/11 12:05:57;;;;;;;8.73;7.88;;;28.40;99.70;;;;;;5030322;28;20068;-81
2023/09/11 12:08:25;;;;;;;8.20;7.40;;;28.40;97.60;;;;;;5009356;28;20121;-80
2023/09/11 12:10:52;;;;;;;8.98;7.65;;;28.40;99.20;;;;;;5013513;28;20134;-80
2023/09/11 12:13:22;;;;;;;8.95;7.60;;;28.30;95.70;;;;;;5006713;28;20390;-80
2023/09/11 12:15:52;;;;;;;7.82;7.13;;;28.40;98.40;;;;;;5013931;28;20065;-80
2023/09/11 12:18:19;;;;;;;8.88;7.97;;;28.20;96.20;;;;;;5014857;28;20477;-80
2023/09/11 12:20:58;;;;;;;8.48;7.68;;;28.10;94.30;;;;;;5017525;28;20028;-80
2023/09/11 12:23:24;;;;;;;10.57;7.50;;;28.10;96.70;;;;;;5016632;28;20037;-80
2023/09/11 12:25:50;;;;;;;8.60;7.80;;;28.10;95.90;;;;;;5008303;28;20386;-80
2023/09/11 12:28:17;;;;;;;8.65;7.65;;;28.20;97.80;;;;;;5024855;28;20036;-79
2023/09/11 12:30:44;;;;;;;8.65;7.85;;;28.30;95.50;;;;;;5015622;28;20036;-79
2023/09/11 12:33:13;;;;;;;9.13;7.60;;;28.30;97.10;;;;;;5034936;28;20048;-80
2023/09/11 12:35:40;;;;;;;8.23;7.43;;;28.40;95.50;;;;;;5005762;28;20050;-80
2023/09/11 12:38:10;;;;;;;10.55;8.02;;;28.50;96.30;;;;;;5015297;28;20448;-80